sensor_id;sensor_type;location;lat;lon;timestamp;pressure;altitude;pressure_sealevel;temperature;humidity
4410;BME280;2218;51.408;7.208;2022-09-14T00:00:54;98998.09;;;22.80;56.84
4410;BME280;2218;51.408;7.208;2022-09-14T00:03:21;98987.50;;;22.80;56.66
4410;BME280;2218;51.408;7.208;2022-09-14T00:05:49;98992.81;;;22.80;56.34
4410;BME280;2218;51.408;7.208;2022-09-14T00:08:16;98994.63;;;22.80;56.48
4410;BME280;2218;51.408;7.208;2022-09-14T00:10:45;98987.50;;;22.80;56.28
4410;BME280;2218;51.408;7.208;2022-09-14T00:13:14;98991.97;;;22.80;56.71
4410;BME280;2218;51.408;7.208;2022-09-14T00:15:42;98993.78;;;22.79;56.75
4410;BME280;2218;51.408;7.208;2022-09-14T00:18:11;98990.31;;;22.79;56.57
4410;BME280;2218;51.408;7.208;2022-09-14T00:20:37;98992.97;;;22.79;56.49
4410;BME280;2218;51.408;7.208;2022-09-14T00:23:06;98993.09;;;22.77;56.60
4410;BME280;2218;51.408;7.208;2022-09-14T00:25:32;98992.13;;;22.78;56.42
4410;BME280;2218;51.408;7.208;2022-09-14T00:28:00;98978.06;;;22.78;56.75
4410;BME280;2218;51.408;7.208;2022-09-14T00:30:26;98969.41;;;22.76;56.69
4410;BME280;2218;51.408;7.208;2022-09-14T00:32:53;98970.22;;;22.76;56.88
4410;BME280;2218;51.408;7.208;2022-09-14T00:35:20;98965.09;;;22.75;56.22
4410;BME280;2218;51.408;7.208;2022-09-14T00:37:48;98963.28;;;22.75;56.93
4410;BME280;2218;51.408;7.208;2022-09-14T00:40:18;98958.81;;;22.76;56.44
4410;BME280;2218;51.408;7.208;2022-09-14T00:42:45;98964.25;;;22.74;56.18
4410;BME280;2218;51.408;7.208;2022-09-14T00:45:16;98972.22;;;22.74;56.57
4410;BME280;2218;51.408;7.208;2022-09-14T00:47:47;98968.56;;;22.75;56.70
4410;BME280;2218;51.408;7.208;2022-09-14T00:50:17;98966.09;;;22.74;57.23
4410;BME280;2218;51.408;7.208;2022-09-14T00:52:47;98950.19;;;22.74;56.21
4410;BME280;2218;51.408;7.208;2022-09-14T00:55:20;98951.03;;;22.74;56.53
4410;BME280;2218;51.408;7.208;2022-09-14T00:57:51;98948.38;;;22.74;56.25
4410;BME280;2218;51.408;7.208;2022-09-14T01:00:24;98945.88;;;22.73;56.18
4410;BME280;2218;51.408;7.208;2022-09-14T01:02:52;98942.38;;;22.72;56.41
4410;BME280;2218;51.408;7.208;2022-09-14T01:05:29;98931.78;;;22.72;56.20
4410;BME280;2218;51.408;7.208;2022-09-14T01:08:24;98926.63;;;22.70;56.36
4410;BME280;2218;51.408;7.208;2022-09-14T01:11:18;98919.53;;;22.71;56.15
4410;BME280;2218;51.408;7.208;2022-09-14T01:13:58;98910.75;;;22.70;56.14
4410;BME280;2218;51.408;7.208;2022-09-14T01:16:36;98924.81;;;22.71;56.28
4410;BME280;2218;51.408;7.208;2022-09-14T01:19:19;98923.16;;;22.70;56.58
4410;BME280;2218;51.408;7.208;2022-09-14T01:21:51;98920.50;;;22.70;56.35
4410;BME280;2218;51.408;7.208;2022-09-14T01:24:26;98918.69;;;22.70;56.23
4410;BME280;2218;51.408;7.208;2022-09-14T01:27:24;98905.59;;;22.69;56.22
4410;BME280;2218;51.408;7.208;2022-09-14T01:30:02;98921.50;;;22.69;56.69
4410;BME280;2218;51.408;7.208;2022-09-14T01:32:38;98917.19;;;22.68;56.15
4410;BME280;2218;51.408;7.208;2022-09-14T01:35:14;98920.66;;;22.68;56.13
4410;BME280;2218;51.408;7.208;2022-09-14T01:37:48;98917.19;;;22.68;56.63
4410;BME280;2218;51.408;7.208;2022-09-14T01:40:22;98917.19;;;22.68;56.09
4410;BME280;2218;51.408;7.208;2022-09-14T01:42:57;98903.94;;;22.68;56.54
4410;BME280;2218;51.408;7.208;2022-09-14T01:45:29;98908.38;;;22.67;56.29
4410;BME280;2218;51.408;7.208;2022-09-14T01:48:01;98916.47;;;22.66;56.58
4410;BME280;2218;51.408;7.208;2022-09-14T01:50:38;98912.84;;;22.67;56.59
4410;BME280;2218;51.408;7.208;2022-09-14T01:53:11;98907.53;;;22.67;56.17
4410;BME280;2218;51.408;7.208;2022-09-14T01:55:44;98896.28;;;22.65;56.58
4410;BME280;2218;51.408;7.208;2022-09-14T01:58:21;98892.63;;;22.66;56.57
4410;BME280;2218;51.408;7.208;2022-09-14T02:00:53;98895.44;;;22.64;56.69
4410;BME280;2218;51.408;7.208;2022-09-14T02:03:26;98901.56;;;22.65;56.69
4410;BME280;2218;51.408;7.208;2022-09-14T02:06:04;98899.09;;;22.63;56.11
4410;BME280;2218;51.408;7.208;2022-09-14T02:08:33;98891.97;;;22.64;56.48
4410;BME280;2218;51.408;7.208;2022-09-14T02:11:01;98891.97;;;22.64;56.14
4410;BME280;2218;51.408;7.208;2022-09-14T02:13:29;98890.31;;;22.63;56.27
4410;BME280;2218;51.408;7.208;2022-09-14T02:15:56;98882.38;;;22.63;56.31
4410;BME280;2218;51.408;7.208;2022-09-14T02:18:23;98892.09;;;22.62;56.10
4410;BME280;2218;51.408;7.208;2022-09-14T02:20:54;98890.31;;;22.63;56.44
4410;BME280;2218;51.408;7.208;2022-09-14T02:23:23;98894.91;;;22.61;56.44
4410;BME280;2218;51.408;7.208;2022-09-14T02:25:51;98893.91;;;22.62;56.51
4410;BME280;2218;51.408;7.208;2022-09-14T02:28:19;98887.94;;;22.60;55.90
4410;BME280;2218;51.408;7.208;2022-09-14T02:31:02;98902.84;;;22.61;55.98
4410;BME280;2218;51.408;7.208;2022-09-14T02:33:42;98893.09;;;22.61;56.63
4410;BME280;2218;51.408;7.208;2022-09-14T02:39:08;98885.28;;;22.60;56.16
4410;BME280;2218;51.408;7.208;2022-09-14T02:41:45;98890.59;;;22.60;55.96
4410;BME280;2218;51.408;7.208;2022-09-14T02:44:22;98886.13;;;22.60;56.44
4410;BME280;2218;51.408;7.208;2022-09-14T02:47:02;98883.63;;;22.59;56.01
4410;BME280;2218;51.408;7.208;2022-09-14T02:49:43;98881.81;;;22.59;55.96
4410;BME280;2218;51.408;7.208;2022-09-14T02:52:15;98869.56;;;22.58;56.15
4410;BME280;2218;51.408;7.208;2022-09-14T02:54:52;98861.63;;;22.58;56.23
4410;BME280;2218;51.408;7.208;2022-09-14T02:57:22;98866.09;;;22.58;56.11
4410;BME280;2218;51.408;7.208;2022-09-14T02:59:49;98875.81;;;22.57;56.60
4410;BME280;2218;51.408;7.208;2022-09-14T03:02:19;98871.38;;;22.58;56.14
4410;BME280;2218;51.408;7.208;2022-09-14T03:04:46;98866.09;;;22.58;56.22
4410;BME280;2218;51.408;7.208;2022-09-14T03:07:13;98866.09;;;22.58;56.60
4410;BME280;2218;51.408;7.208;2022-09-14T03:09:40;98866.22;;;22.56;56.51
4410;BME280;2218;51.408;7.208;2022-09-14T03:12:07;98865.38;;;22.56;56.20
4410;BME280;2218;51.408;7.208;2022-09-14T03:14:34;98866.22;;;22.56;56.00
4410;BME280;2218;51.408;7.208;2022-09-14T03:17:01;98863.56;;;22.56;55.87
4410;BME280;2218;51.408;7.208;2022-09-14T03:19:29;98857.44;;;22.56;55.91
4410;BME280;2218;51.408;7.208;2022-09-14T03:21:56;98858.28;;;22.56;56.49
4410;BME280;2218;51.408;7.208;2022-09-14T03:24:23;98857.44;;;22.56;55.80
4410;BME280;2218;51.408;7.208;2022-09-14T03:26:50;98854.78;;;22.56;56.17
4410;BME280;2218;51.408;7.208;2022-09-14T03:29:16;98857.59;;;22.54;56.51
4410;BME280;2218;51.408;7.208;2022-09-14T03:31:43;98853.13;;;22.55;56.42
4410;BME280;2218;51.408;7.208;2022-09-14T03:34:10;98855.78;;;22.55;56.20
4410;BME280;2218;51.408;7.208;2022-09-14T03:36:38;98843.53;;;22.54;56.08
4410;BME280;2218;51.408;7.208;2022-09-14T03:39:05;98849.81;;;22.53;55.82
4410;BME280;2218;51.408;7.208;2022-09-14T03:41:33;98849.81;;;22.53;55.97
4410;BME280;2218;51.408;7.208;2022-09-14T03:44:01;98842.69;;;22.53;56.42
4410;BME280;2218;51.408;7.208;2022-09-14T03:46:28;98841.88;;;22.53;56.07
4410;BME280;2218;51.408;7.208;2022-09-14T03:48:55;98831.28;;;22.53;55.86
4410;BME280;2218;51.408;7.208;2022-09-14T03:51:23;98824.28;;;22.52;56.31
4410;BME280;2218;51.408;7.208;2022-09-14T03:53:51;98827.63;;;22.54;55.83
4410;BME280;2218;51.408;7.208;2022-09-14T03:56:21;98826.94;;;22.52;55.89
4410;BME280;2218;51.408;7.208;2022-09-14T03:58:49;98816.34;;;22.52;55.83
4410;BME280;2218;51.408;7.208;2022-09-14T04:01:20;98842.81;;;22.52;56.22
4410;BME280;2218;51.408;7.208;2022-09-14T04:03:48;98845.47;;;22.52;56.11
4410;BME280;2218;51.408;7.208;2022-09-14T04:06:18;98844.50;;;22.53;55.83
4410;BME280;2218;51.408;7.208;2022-09-14T04:08:46;98839.22;;;22.53;55.88
4410;BME280;2218;51.408;7.208;2022-09-14T04:11:16;98833.06;;;22.52;55.48
4410;BME280;2218;51.408;7.208;2022-09-14T04:13:44;98836.56;;;22.53;55.42
4410;BME280;2218;51.408;7.208;2022-09-14T04:16:12;98833.06;;;22.52;55.43
4410;BME280;2218;51.408;7.208;2022-09-14T04:18:39;98827.75;;;22.52;55.42
4410;BME280;2218;51.408;7.208;2022-09-14T04:21:10;98825.97;;;22.53;55.53
4410;BME280;2218;51.408;7.208;2022-09-14T04:23:38;98829.59;;;22.52;55.89
4410;BME280;2218;51.408;7.208;2022-09-14T04:26:10;98829.59;;;22.52;55.89
4410;BME280;2218;51.408;7.208;2022-09-14T04:28:39;98830.41;;;22.52;55.86
4410;BME280;2218;51.408;7.208;2022-09-14T04:31:08;98834.88;;;22.52;55.25
4410;BME280;2218;51.408;7.208;2022-09-14T04:33:37;98835.88;;;22.51;55.68
4410;BME280;2218;51.408;7.208;2022-09-14T04:36:08;98829.59;;;22.52;55.68
4410;BME280;2218;51.408;7.208;2022-09-14T04:38:37;98828.75;;;22.51;55.43
4410;BME280;2218;51.408;7.208;2022-09-14T04:41:07;98822.63;;;22.51;55.38
4410;BME280;2218;51.408;7.208;2022-09-14T04:43:34;98833.22;;;22.51;55.79
4410;BME280;2218;51.408;7.208;2022-09-14T04:46:04;98828.75;;;22.51;55.21
4410;BME280;2218;51.408;7.208;2022-09-14T04:48:32;98819.16;;;22.50;55.23
4410;BME280;2218;51.408;7.208;2022-09-14T04:51:01;98831.56;;;22.50;55.40
4410;BME280;2218;51.408;7.208;2022-09-14T04:53:28;98829.75;;;22.50;55.50
4410;BME280;2218;51.408;7.208;2022-09-14T04:55:59;98817.50;;;22.49;55.19
4410;BME280;2218;51.408;7.208;2022-09-14T04:58:26;98821.81;;;22.50;55.78
4410;BME280;2218;51.408;7.208;2022-09-14T05:00:54;98823.63;;;22.50;55.33
4410;BME280;2218;51.408;7.208;2022-09-14T05:03:22;98819.31;;;22.49;55.82
4410;BME280;2218;51.408;7.208;2022-09-14T05:05:49;98824.59;;;22.49;55.94
4410;BME280;2218;51.408;7.208;2022-09-14T05:08:16;98817.63;;;22.48;55.25
4410;BME280;2218;51.408;7.208;2022-09-14T05:10:43;98818.31;;;22.50;55.30
4410;BME280;2218;51.408;7.208;2022-09-14T05:13:10;98818.47;;;22.48;55.29
4410;BME280;2218;51.408;7.208;2022-09-14T05:15:39;98815.84;;;22.48;55.30
4410;BME280;2218;51.408;7.208;2022-09-14T05:18:07;98817.63;;;22.48;55.33
4410;BME280;2218;51.408;7.208;2022-09-14T05:20:37;98814.13;;;22.47;55.43
4410;BME280;2218;51.408;7.208;2022-09-14T05:23:04;98822.91;;;22.48;55.80
4410;BME280;2218;51.408;7.208;2022-09-14T05:25:30;98816.78;;;22.47;55.94
4410;BME280;2218;51.408;7.208;2022-09-14T05:27:57;98822.91;;;22.48;55.54
4410;BME280;2218;51.408;7.208;2022-09-14T05:30:24;98820.44;;;22.46;55.73
4410;BME280;2218;51.408;7.208;2022-09-14T05:32:52;98822.91;;;22.48;55.58
4410;BME280;2218;51.408;7.208;2022-09-14T05:35:19;98820.44;;;22.46;55.20
4410;BME280;2218;51.408;7.208;2022-09-14T05:37:47;98824.72;;;22.47;55.45
4410;BME280;2218;51.408;7.208;2022-09-14T05:40:14;98815.97;;;22.47;55.89
4410;BME280;2218;51.408;7.208;2022-09-14T05:42:41;98817.78;;;22.46;55.75
4410;BME280;2218;51.408;7.208;2022-09-14T05:45:09;98820.44;;;22.46;55.26
4410;BME280;2218;51.408;7.208;2022-09-14T05:47:36;98821.25;;;22.47;55.43
4410;BME280;2218;51.408;7.208;2022-09-14T05:50:03;98822.25;;;22.45;55.57
4410;BME280;2218;51.408;7.208;2022-09-14T05:52:30;98828.53;;;22.44;55.36
4410;BME280;2218;51.408;7.208;2022-09-14T05:54:58;98819.59;;;22.45;55.55
4410;BME280;2218;51.408;7.208;2022-09-14T05:57:25;98818.75;;;22.45;55.44
4410;BME280;2218;51.408;7.208;2022-09-14T05:59:52;98817.94;;;22.44;55.89
4410;BME280;2218;51.408;7.208;2022-09-14T06:02:19;98822.25;;;22.45;55.81
4410;BME280;2218;51.408;7.208;2022-09-14T06:04:46;98811.81;;;22.44;56.00
4410;BME280;2218;51.408;7.208;2022-09-14T06:07:13;98821.56;;;22.43;55.53
4410;BME280;2218;51.408;7.208;2022-09-14T06:09:40;98821.56;;;22.43;56.06
4410;BME280;2218;51.408;7.208;2022-09-14T06:12:08;98817.94;;;22.44;55.60
4410;BME280;2218;51.408;7.208;2022-09-14T06:14:35;98815.28;;;22.44;55.47
4410;BME280;2218;51.408;7.208;2022-09-14T06:17:02;98810.16;;;22.43;55.52
4410;BME280;2218;51.408;7.208;2022-09-14T06:19:30;98810.81;;;22.45;56.56
4410;BME280;2218;51.408;7.208;2022-09-14T06:21:57;98813.03;;;22.50;55.74
4410;BME280;2218;51.408;7.208;2022-09-14T06:24:24;98808.13;;;22.55;55.88
4410;BME280;2218;51.408;7.208;2022-09-14T06:26:51;98814.78;;;22.59;56.28
4410;BME280;2218;51.408;7.208;2022-09-14T06:29:19;98811.81;;;22.62;55.87
4410;BME280;2218;51.408;7.208;2022-09-14T06:31:46;98805.25;;;22.66;55.68
4410;BME280;2218;51.408;7.208;2022-09-14T06:34:12;98805.09;;;22.67;55.89
4410;BME280;2218;51.408;7.208;2022-09-14T06:36:39;98809.25;;;22.70;55.57
4410;BME280;2218;51.408;7.208;2022-09-14T06:39:07;98809.94;;;22.72;55.47
4410;BME280;2218;51.408;7.208;2022-09-14T06:41:34;98807.16;;;22.74;55.35
4410;BME280;2218;51.408;7.208;2022-09-14T06:44:01;98805.19;;;22.76;55.14
4410;BME280;2218;51.408;7.208;2022-09-14T06:46:32;98805.03;;;22.77;55.53
4410;BME280;2218;51.408;7.208;2022-09-14T06:49:02;98804.06;;;22.78;55.03
4410;BME280;2218;51.408;7.208;2022-09-14T06:51:34;98807.38;;;22.80;54.81
4410;BME280;2218;51.408;7.208;2022-09-14T06:54:02;98812.69;;;22.80;54.88
4410;BME280;2218;51.408;7.208;2022-09-14T06:56:32;98813.22;;;22.84;54.91
4410;BME280;2218;51.408;7.208;2022-09-14T06:58:59;98822.00;;;22.84;55.01
4410;BME280;2218;51.408;7.208;2022-09-14T07:01:27;98815.16;;;22.82;55.48
4410;BME280;2218;51.408;7.208;2022-09-14T07:03:56;98820.63;;;22.80;55.50
4410;BME280;2218;51.408;7.208;2022-09-14T07:06:27;98820.63;;;22.80;55.19
4410;BME280;2218;51.408;7.208;2022-09-14T07:08:54;98819.63;;;22.81;54.90
4410;BME280;2218;51.408;7.208;2022-09-14T07:11:24;98826.91;;;22.79;55.51
4410;BME280;2218;51.408;7.208;2022-09-14T07:13:53;98823.44;;;22.79;54.99
4410;BME280;2218;51.408;7.208;2022-09-14T07:16:21;98827.75;;;22.80;55.67
4410;BME280;2218;51.408;7.208;2022-09-14T07:18:52;98836.69;;;22.79;55.36
4410;BME280;2218;51.408;7.208;2022-09-14T07:21:21;98837.66;;;22.78;55.28
4410;BME280;2218;51.408;7.208;2022-09-14T07:23:48;98828.84;;;22.77;55.71
4410;BME280;2218;51.408;7.208;2022-09-14T07:26:18;98826.09;;;22.79;55.27
4410;BME280;2218;51.408;7.208;2022-09-14T07:28:48;98829.72;;;22.78;55.69
4410;BME280;2218;51.408;7.208;2022-09-14T07:31:18;98823.56;;;22.77;55.25
4410;BME280;2218;51.408;7.208;2022-09-14T07:33:46;98815.63;;;22.77;55.31
4410;BME280;2218;51.408;7.208;2022-09-14T07:36:14;98825.09;;;22.80;55.52
4410;BME280;2218;51.408;7.208;2022-09-14T07:38:42;98823.28;;;22.80;55.71
4410;BME280;2218;51.408;7.208;2022-09-14T07:41:09;98819.94;;;22.78;55.50
4410;BME280;2218;51.408;7.208;2022-09-14T07:43:36;98821.91;;;22.76;55.78
4410;BME280;2218;51.408;7.208;2022-09-14T07:46:03;98832.38;;;22.78;55.13
4410;BME280;2218;51.408;7.208;2022-09-14T07:48:33;98835.84;;;22.78;55.26
4410;BME280;2218;51.408;7.208;2022-09-14T07:51:02;98816.47;;;22.78;55.61
4410;BME280;2218;51.408;7.208;2022-09-14T07:53:29;98819.94;;;22.78;55.42
4410;BME280;2218;51.408;7.208;2022-09-14T07:55:59;98815.47;;;22.79;55.73
4410;BME280;2218;51.408;7.208;2022-09-14T07:58:27;98816.31;;;22.79;55.67
4410;BME280;2218;51.408;7.208;2022-09-14T08:00:58;98815.47;;;22.79;55.60
4410;BME280;2218;51.408;7.208;2022-09-14T08:03:25;98814.34;;;22.81;55.51
4410;BME280;2218;51.408;7.208;2022-09-14T08:06:00;98811.03;;;22.79;55.41
4410;BME280;2218;51.408;7.208;2022-09-14T08:08:29;98815.63;;;22.77;55.17
4410;BME280;2218;51.408;7.208;2022-09-14T08:11:04;98809.34;;;22.78;55.55
4410;BME280;2218;51.408;7.208;2022-09-14T08:13:33;98810.19;;;22.79;55.65
4410;BME280;2218;51.408;7.208;2022-09-14T08:16:00;98807.66;;;22.77;55.31
4410;BME280;2218;51.408;7.208;2022-09-14T08:18:28;98812.97;;;22.77;55.29
4410;BME280;2218;51.408;7.208;2022-09-14T08:20:55;98805.03;;;22.77;55.76
4410;BME280;2218;51.408;7.208;2022-09-14T08:23:22;98804.34;;;22.75;55.82
4410;BME280;2218;51.408;7.208;2022-09-14T08:25:49;98796.25;;;22.77;55.68
4410;BME280;2218;51.408;7.208;2022-09-14T08:28:19;98796.94;;;22.79;55.59
4410;BME280;2218;51.408;7.208;2022-09-14T08:30:46;98800.72;;;22.76;55.12
4410;BME280;2218;51.408;7.208;2022-09-14T08:33:13;98802.38;;;22.77;55.14
4410;BME280;2218;51.408;7.208;2022-09-14T08:35:43;98794.44;;;22.77;55.45
4410;BME280;2218;51.408;7.208;2022-09-14T08:38:10;98794.44;;;22.77;55.42
4410;BME280;2218;51.408;7.208;2022-09-14T08:40:43;98791.78;;;22.77;55.27
4410;BME280;2218;51.408;7.208;2022-09-14T08:43:11;98791.78;;;22.77;55.20
4410;BME280;2218;51.408;7.208;2022-09-14T08:45:41;98796.25;;;22.77;55.40
4410;BME280;2218;51.408;7.208;2022-09-14T08:48:20;98793.59;;;22.77;55.38
4410;BME280;2218;51.408;7.208;2022-09-14T08:50:50;98799.06;;;22.75;55.18
4410;BME280;2218;51.408;7.208;2022-09-14T08:53:19;98795.41;;;22.76;55.17
4410;BME280;2218;51.408;7.208;2022-09-14T08:55:53;98789.28;;;22.76;55.69
4410;BME280;2218;51.408;7.208;2022-09-14T08:58:39;98795.41;;;22.76;55.75
4410;BME280;2218;51.408;7.208;2022-09-14T09:04:23;98795.41;;;22.76;55.07
4410;BME280;2218;51.408;7.208;2022-09-14T09:06:59;98799.72;;;22.77;55.71
4410;BME280;2218;51.408;7.208;2022-09-14T09:09:40;98800.03;;;22.74;55.72
4410;BME280;2218;51.408;7.208;2022-09-14T09:12:15;98797.41;;;22.74;55.14
4410;BME280;2218;51.408;7.208;2022-09-14T09:14:48;98793.75;;;22.75;55.77
4410;BME280;2218;51.408;7.208;2022-09-14T09:17:22;98782.34;;;22.75;55.23
4410;BME280;2218;51.408;7.208;2022-09-14T09:19:59;98785.81;;;22.75;55.07
4410;BME280;2218;51.408;7.208;2022-09-14T09:22:34;98785.13;;;22.73;55.18
4410;BME280;2218;51.408;7.208;2022-09-14T09:25:12;98785.13;;;22.73;55.17
4410;BME280;2218;51.408;7.208;2022-09-14T09:27:41;98784.31;;;22.73;55.74
4410;BME280;2218;51.408;7.208;2022-09-14T09:30:13;98784.31;;;22.73;55.63
4410;BME280;2218;51.408;7.208;2022-09-14T09:32:42;98779.97;;;22.71;55.86
4410;BME280;2218;51.408;7.208;2022-09-14T09:35:24;98776.19;;;22.74;55.55
4410;BME280;2218;51.408;7.208;2022-09-14T09:37:59;98782.50;;;22.73;55.55
4410;BME280;2218;51.408;7.208;2022-09-14T09:40:33;98785.13;;;22.73;55.36
4410;BME280;2218;51.408;7.208;2022-09-14T09:43:10;98786.78;;;22.74;55.35
4410;BME280;2218;51.408;7.208;2022-09-14T09:45:52;98792.09;;;22.74;55.54
4410;BME280;2218;51.408;7.208;2022-09-14T09:48:27;98784.97;;;22.75;55.69
4410;BME280;2218;51.408;7.208;2022-09-14T09:51:09;98785.81;;;22.75;55.70
4410;BME280;2218;51.408;7.208;2022-09-14T09:53:45;98791.09;;;22.75;55.75
4410;BME280;2218;51.408;7.208;2022-09-14T09:56:19;98788.75;;;22.72;55.74
4410;BME280;2218;51.408;7.208;2022-09-14T09:58:48;98788.75;;;22.72;55.27
4410;BME280;2218;51.408;7.208;2022-09-14T10:01:26;98789.59;;;22.73;55.15
4410;BME280;2218;51.408;7.208;2022-09-14T10:04:06;98794.75;;;22.74;55.70
4410;BME280;2218;51.408;7.208;2022-09-14T10:06:43;98795.72;;;22.73;55.61
4410;BME280;2218;51.408;7.208;2022-09-14T10:09:13;98783.44;;;22.72;55.39
4410;BME280;2218;51.408;7.208;2022-09-14T10:11:42;98787.78;;;22.73;55.30
4410;BME280;2218;51.408;7.208;2022-09-14T10:14:29;98787.91;;;22.71;55.25
4410;BME280;2218;51.408;7.208;2022-09-14T10:17:06;98788.75;;;22.72;55.71
4410;BME280;2218;51.408;7.208;2022-09-14T10:19:46;98780.69;;;22.74;55.39
4410;BME280;2218;51.408;7.208;2022-09-14T10:22:24;98786.78;;;22.74;55.58
4410;BME280;2218;51.408;7.208;2022-09-14T10:24:57;98777.25;;;22.81;54.83
4410;BME280;2218;51.408;7.208;2022-09-14T10:27:40;98781.25;;;22.85;54.55
4410;BME280;2218;51.408;7.208;2022-09-14T10:30:16;98775.81;;;22.87;54.91
4410;BME280;2218;51.408;7.208;2022-09-14T10:32:52;98780.16;;;22.88;54.08
4410;BME280;2218;51.408;7.208;2022-09-14T10:35:27;98786.97;;;22.90;54.06
4410;BME280;2218;51.408;7.208;2022-09-14T10:38:20;98770.09;;;22.91;54.45
4410;BME280;2218;51.408;7.208;2022-09-14T10:41:04;98768.25;;;22.92;53.92
4410;BME280;2218;51.408;7.208;2022-09-14T10:43:50;98771.78;;;22.92;54.09
4410;BME280;2218;51.408;7.208;2022-09-14T10:46:32;98777.75;;;22.94;54.52
4410;BME280;2218;51.408;7.208;2022-09-14T10:49:24;98773.28;;;22.95;54.22
4410;BME280;2218;51.408;7.208;2022-09-14T10:52:11;98774.09;;;22.95;53.90
4410;BME280;2218;51.408;7.208;2022-09-14T10:55:02;98783.56;;;22.98;54.08
4410;BME280;2218;51.408;7.208;2022-09-14T10:57:43;98783.56;;;22.98;53.79
4410;BME280;2218;51.408;7.208;2022-09-14T11:00:15;98776.47;;;22.99;54.20
4410;BME280;2218;51.408;7.208;2022-09-14T11:03:18;98775.47;;;23.00;54.03
4410;BME280;2218;51.408;7.208;2022-09-14T11:06:01;98780.59;;;23.01;53.48
4410;BME280;2218;51.408;7.208;2022-09-14T11:08:39;98776.13;;;23.02;53.97
4410;BME280;2218;51.408;7.208;2022-09-14T11:11:29;98778.50;;;23.05;53.40
4410;BME280;2218;51.408;7.208;2022-09-14T11:14:18;98771.53;;;23.04;54.00
4410;BME280;2218;51.408;7.208;2022-09-14T11:17:04;98775.84;;;23.05;53.43
4410;BME280;2218;51.408;7.208;2022-09-14T11:19:43;98766.22;;;23.04;54.07
4410;BME280;2218;51.408;7.208;2022-09-14T11:22:27;98771.19;;;23.07;53.84
4410;BME280;2218;51.408;7.208;2022-09-14T11:25:03;98760.75;;;23.05;53.55
4410;BME280;2218;51.408;7.208;2022-09-14T11:27:37;98765.91;;;23.07;53.43
4410;BME280;2218;51.408;7.208;2022-09-14T11:30:14;98766.06;;;23.05;53.90
4410;BME280;2218;51.408;7.208;2022-09-14T11:32:47;98764.25;;;23.06;53.78
4410;BME280;2218;51.408;7.208;2022-09-14T11:35:21;98769.25;;;23.09;53.40
4410;BME280;2218;51.408;7.208;2022-09-14T11:37:55;98767.44;;;23.09;54.00
4410;BME280;2218;51.408;7.208;2022-09-14T11:40:33;98753.19;;;23.10;53.86
4410;BME280;2218;51.408;7.208;2022-09-14T11:43:07;98751.38;;;23.11;53.71
4410;BME280;2218;51.408;7.208;2022-09-14T11:45:45;98749.72;;;23.10;53.43
4410;BME280;2218;51.408;7.208;2022-09-14T11:48:21;98743.41;;;23.11;53.49
4410;BME280;2218;51.408;7.208;2022-09-14T11:50:57;98737.97;;;23.12;53.54
4410;BME280;2218;51.408;7.208;2022-09-14T11:53:27;98731.81;;;23.12;53.73
4410;BME280;2218;51.408;7.208;2022-09-14T11:55:58;98741.47;;;23.13;52.90
4410;BME280;2218;51.408;7.208;2022-09-14T11:58:27;98740.47;;;23.14;53.54
4410;BME280;2218;51.408;7.208;2022-09-14T12:01:26;98724.56;;;23.14;53.62
4410;BME280;2218;51.408;7.208;2022-09-14T12:04:10;98704.03;;;23.16;53.53
4410;BME280;2218;51.408;7.208;2022-09-14T12:06:58;98705.84;;;23.15;53.40
4410;BME280;2218;51.408;7.208;2022-09-14T12:09:44;98720.91;;;23.15;53.46
4410;BME280;2218;51.408;7.208;2022-09-14T12:12:37;98720.25;;;23.13;53.44
4410;BME280;2218;51.408;7.208;2022-09-14T12:15:20;98722.22;;;23.11;53.09
4410;BME280;2218;51.408;7.208;2022-09-14T12:17:49;98728.81;;;23.07;53.57
4410;BME280;2218;51.408;7.208;2022-09-14T12:20:38;98729.50;;;23.09;53.32
4410;BME280;2218;51.408;7.208;2022-09-14T12:23:28;98728.66;;;23.08;53.65
4410;BME280;2218;51.408;7.208;2022-09-14T12:26:28;98725.19;;;23.08;53.36
4410;BME280;2218;51.408;7.208;2022-09-14T12:29:23;98717.53;;;23.05;53.77
4410;BME280;2218;51.408;7.208;2022-09-14T12:32:36;98717.59;;;23.13;53.37
4410;BME280;2218;51.408;7.208;2022-09-14T12:35:43;98711.97;;;23.16;53.67
4410;BME280;2218;51.408;7.208;2022-09-14T12:38:39;98730.53;;;23.16;53.42
4410;BME280;2218;51.408;7.208;2022-09-14T12:45:48;98727.59;;;23.19;53.17
4410;BME280;2218;51.408;7.208;2022-09-14T12:48:52;98726.75;;;23.18;52.89
4410;BME280;2218;51.408;7.208;2022-09-14T12:51:41;98713.34;;;23.20;52.86
4410;BME280;2218;51.408;7.208;2022-09-14T12:54:23;98716.00;;;23.20;53.12
4410;BME280;2218;51.408;7.208;2022-09-14T12:57:07;98713.50;;;23.18;53.05
4410;BME280;2218;51.408;7.208;2022-09-14T12:59:51;98716.16;;;23.18;53.30
4410;BME280;2218;51.408;7.208;2022-09-14T13:03:04;98702.75;;;23.20;52.89
4410;BME280;2218;51.408;7.208;2022-09-14T13:05:44;98705.22;;;23.21;53.54
4410;BME280;2218;51.408;7.208;2022-09-14T13:08:14;98691.13;;;23.21;53.49
4410;BME280;2218;51.408;7.208;2022-09-14T13:10:46;98696.44;;;23.21;53.26
4410;BME280;2218;51.408;7.208;2022-09-14T13:13:18;98701.75;;;23.21;53.50
4410;BME280;2218;51.408;7.208;2022-09-14T13:15:52;98708.69;;;23.22;52.88
4410;BME280;2218;51.408;7.208;2022-09-14T13:18:32;98705.59;;;23.27;52.67
4410;BME280;2218;51.408;7.208;2022-09-14T13:21:03;98708.88;;;23.20;53.24
4410;BME280;2218;51.408;7.208;2022-09-14T13:23:36;98701.25;;;23.17;53.30
4410;BME280;2218;51.408;7.208;2022-09-14T13:26:09;98698.59;;;23.17;53.45
4410;BME280;2218;51.408;7.208;2022-09-14T13:28:40;98701.38;;;23.16;53.43
4410;BME280;2218;51.408;7.208;2022-09-14T13:31:12;98697.06;;;23.15;54.09
4410;BME280;2218;51.408;7.208;2022-09-14T13:33:48;98684.13;;;23.12;53.59
4410;BME280;2218;51.408;7.208;2022-09-14T13:36:19;98669.06;;;23.12;53.92
4410;BME280;2218;51.408;7.208;2022-09-14T13:38:47;98669.06;;;23.12;53.99
4410;BME280;2218;51.408;7.208;2022-09-14T13:41:19;98666.56;;;23.11;54.33
4410;BME280;2218;51.408;7.208;2022-09-14T13:43:51;98667.38;;;23.11;53.89
4410;BME280;2218;51.408;7.208;2022-09-14T13:46:21;98678.31;;;23.08;54.14
4410;BME280;2218;51.408;7.208;2022-09-14T13:48:51;98680.28;;;23.06;53.89
4410;BME280;2218;51.408;7.208;2022-09-14T13:51:23;98666.03;;;23.07;53.70
4410;BME280;2218;51.408;7.208;2022-09-14T13:53:53;98675.66;;;23.08;54.32
4410;BME280;2218;51.408;7.208;2022-09-14T13:56:28;98668.56;;;23.09;53.81
4410;BME280;2218;51.408;7.208;2022-09-14T13:59:19;98662.56;;;23.07;53.81
4410;BME280;2218;51.408;7.208;2022-09-14T14:01:55;98658.25;;;23.06;53.68
4410;BME280;2218;51.408;7.208;2022-09-14T14:04:30;98663.88;;;23.03;54.25